Time;durP1;ratioP1;P1;durP2;ratioP2;P2;SDS_P1;SDS_P2;PMS_P1;PMS_P2;Temp;Humidity;BMP_temperature;BMP_pressure;BME280_temperature;BME280_humidity;BME280_pressure;Samples;Min_cycle;Max_cycle;Signal;HPM_P1;HPM_P2
2023/05/05 00:01:06;;;;;;;9.13;6.10;;;12.90;99.90;;;;;;5066898;28;20505;-57
2023/05/05 00:03:33;;;;;;;6.13;5.30;;;13.00;99.90;;;;;;5073398;28;20445;-58
2023/05/05 00:05:59;;;;;;;6.57;5.87;;;12.90;99.90;;;;;;5074426;28;20569;-59
2023/05/05 00:08:24;;;;;;;7.20;5.57;;;13.00;99.90;;;;;;5072024;28;20853;-58
2023/05/05 00:10:51;;;;;;;8.27;5.43;;;12.90;1.00;;;;;;5070941;28;20195;-57
2023/05/05 00:13:18;;;;;;;13.80;6.17;;;12.90;1.00;;;;;;5069959;28;21594;-59
2023/05/05 00:15:46;;;;;;;6.23;5.47;;;12.80;1.00;;;;;;5074841;28;20449;-57
2023/05/05 00:18:13;;;;;;;12.20;6.20;;;12.70;1.00;;;;;;5070162;28;21008;-59
2023/05/05 00:20:39;;;;;;;6.03;5.50;;;12.60;1.00;;;;;;5077449;28;20532;-58
2023/05/05 00:23:05;;;;;;;6.80;6.10;;;12.60;1.00;;;;;;5085131;28;20570;-58
2023/05/05 00:25:31;;;;;;;7.10;6.40;;;12.30;1.00;;;;;;5073951;28;20506;-58
2023/05/05 00:27:57;;;;;;;6.23;5.63;;;12.60;1.00;;;;;;5068100;28;20468;-58
2023/05/05 00:30:23;;;;;;;6.87;6.03;;;12.50;1.00;;;;;;5073881;28;20191;-58
2023/05/05 00:32:49;;;;;;;6.33;5.80;;;12.40;1.00;;;;;;5078173;28;20535;-59
2023/05/05 00:35:16;;;;;;;6.70;6.00;;;12.40;1.00;;;;;;5072598;28;20434;-58
2023/05/05 00:37:42;;;;;;;6.90;6.20;;;12.40;1.00;;;;;;5070834;28;20444;-58
2023/05/05 00:40:09;;;;;;;7.03;6.00;;;12.30;1.00;;;;;;5073186;28;20517;-57
2023/05/05 00:42:42;;;;;;;8.03;6.50;;;12.30;1.00;;;;;;5070794;28;20203;-58
2023/05/05 00:45:10;;;;;;;7.17;6.43;;;12.40;1.00;;;;;;5069140;28;20457;-58
2023/05/05 00:47:36;;;;;;;7.10;5.70;;;12.30;1.00;;;;;;5072527;28;20446;-58
2023/05/05 00:50:09;;;;;;;8.03;6.30;;;12.30;1.00;;;;;;5067696;28;21117;-57
2023/05/05 00:52:36;;;;;;;8.40;5.87;;;12.30;1.00;;;;;;5078463;28;20473;-58
2023/05/05 00:55:03;;;;;;;6.77;6.07;;;12.20;1.00;;;;;;5076621;28;20465;-57
2023/05/05 00:57:29;;;;;;;6.40;5.80;;;12.10;1.00;;;;;;5074379;28;20481;-58
2023/05/05 00:59:55;;;;;;;6.97;5.93;;;12.10;1.00;;;;;;5068870;28;20797;-57
2023/05/05 01:02:21;;;;;;;6.03;5.50;;;12.00;1.00;;;;;;5064130;28;20469;-58
2023/05/05 01:04:47;;;;;;;8.30;6.37;;;12.00;1.00;;;;;;5061863;28;20882;-57
2023/05/05 01:07:21;;;;;;;11.43;6.47;;;12.00;1.00;;;;;;5067176;28;20548;-59
2023/05/05 01:10:11;;;;;;;7.50;6.17;;;12.00;1.00;;;;;;5067609;28;20452;-58
2023/05/05 01:13:23;;;;;;;8.60;5.30;;;11.90;1.00;;;;;;5067762;28;20446;-58
2023/05/05 01:16:03;;;;;;;7.97;6.00;;;12.00;1.00;;;;;;5032047;28;20450;-58
2023/05/05 01:18:31;;;;;;;6.60;5.80;;;11.90;1.00;;;;;;5067803;28;20552;-59
2023/05/05 01:21:00;;;;;;;7.20;6.03;;;11.90;1.00;;;;;;5066142;28;20458;-57
2023/05/05 01:23:40;;;;;;;7.90;6.70;;;11.80;1.00;;;;;;5079990;28;20772;-60
2023/05/05 01:26:47;;;;;;;7.90;5.87;;;11.90;1.00;;;;;;5071384;28;20583;-58
2023/05/05 01:29:22;;;;;;;6.80;6.10;;;11.80;1.00;;;;;;5063954;28;20525;-58
2023/05/05 01:31:53;;;;;;;7.70;6.10;;;11.80;1.00;;;;;;5068833;28;20472;-58
2023/05/05 01:34:25;;;;;;;7.37;6.67;;;11.80;1.00;;;;;;5066596;28;20448;-58
2023/05/05 01:36:57;;;;;;;9.50;5.50;;;11.70;1.00;;;;;;5059910;28;20919;-57
2023/05/05 01:39:27;;;;;;;8.43;6.00;;;11.70;1.00;;;;;;5069619;28;20811;-59
2023/05/05 01:41:58;;;;;;;7.77;6.23;;;11.70;1.00;;;;;;5061741;28;20983;-59
2023/05/05 01:44:25;;;;;;;8.07;6.20;;;11.70;1.00;;;;;;5069148;28;20434;-57
2023/05/05 01:46:52;;;;;;;6.60;5.60;;;11.70;1.00;;;;;;5067188;28;20437;-58
2023/05/05 01:49:17;;;;;;;6.87;6.13;;;11.70;1.00;;;;;;5064641;28;20457;-60
2023/05/05 01:51:45;;;;;;;8.20;5.83;;;11.80;1.00;;;;;;5064912;28;20456;-57
2023/05/05 01:54:12;;;;;;;6.20;5.53;;;11.70;1.00;;;;;;5066942;28;21014;-58
2023/05/05 01:56:39;;;;;;;8.63;6.20;;;11.70;1.00;;;;;;5081492;28;20465;-58
2023/05/05 01:59:05;;;;;;;8.07;6.83;;;11.70;1.00;;;;;;5079991;28;20444;-58
2023/05/05 02:01:36;;;;;;;9.30;5.97;;;11.70;1.00;;;;;;5082557;28;20816;-58
2023/05/05 02:04:03;;;;;;;6.37;5.70;;;11.60;1.00;;;;;;5074557;28;20797;-58
2023/05/05 02:06:31;;;;;;;8.67;6.00;;;11.50;1.00;;;;;;5073337;28;20977;-58
2023/05/05 02:08:57;;;;;;;6.73;5.40;;;11.50;1.00;;;;;;5068160;28;20483;-58
2023/05/05 02:11:24;;;;;;;6.50;5.80;;;11.50;1.00;;;;;;5074268;28;20441;-59
2023/05/05 02:13:51;;;;;;;7.80;6.17;;;11.50;1.00;;;;;;5079021;28;20487;-58
2023/05/05 02:16:18;;;;;;;8.30;6.03;;;11.40;1.00;;;;;;5076788;28;20493;-58
2023/05/05 02:18:46;;;;;;;8.57;5.57;;;11.40;1.00;;;;;;5067258;28;20963;-58
2023/05/05 02:21:13;;;;;;;7.03;6.07;;;11.40;1.00;;;;;;5068694;28;20485;-58
2023/05/05 02:23:39;;;;;;;8.63;5.77;;;11.40;1.00;;;;;;5075293;28;20460;-58
2023/05/05 02:26:10;;;;;;;6.57;5.80;;;11.40;1.00;;;;;;5071242;28;20441;-57
2023/05/05 02:28:47;;;;;;;6.77;6.10;;;11.30;1.00;;;;;;5068790;28;20441;-58
2023/05/05 02:31:15;;;;;;;7.70;6.90;;;10.90;1.00;;;;;;5077619;28;20898;-58
2023/05/05 02:33:43;;;;;;;7.83;6.10;;;11.30;1.00;;;;;;5068642;28;20445;-58
2023/05/05 02:36:16;;;;;;;10.20;6.10;;;11.30;1.00;;;;;;5065058;28;20442;-58
2023/05/05 02:38:43;;;;;;;7.37;6.50;;;11.20;1.00;;;;;;5068846;28;20840;-59
2023/05/05 02:41:15;;;;;;;7.57;6.50;;;11.20;1.00;;;;;;5065756;28;20504;-58
2023/05/05 02:43:42;;;;;;;7.83;6.63;;;11.20;1.00;;;;;;5077702;28;20771;-58
2023/05/05 02:46:08;;;;;;;7.07;6.10;;;10.60;1.00;;;;;;5076492;28;20469;-58
2023/05/05 02:48:34;;;;;;;15.90;6.63;;;11.20;1.00;;;;;;5073128;28;20438;-57
2023/05/05 02:50:59;;;;;;;8.30;6.20;;;11.10;1.00;;;;;;5070068;28;20184;-57
2023/05/05 02:53:26;;;;;;;6.80;6.10;;;11.10;1.00;;;;;;5066593;28;20533;-57
2023/05/05 02:55:56;;;;;;;8.07;6.07;;;11.10;1.00;;;;;;5073069;28;20243;-57
2023/05/05 02:58:32;;;;;;;8.33;6.50;;;11.10;1.00;;;;;;5072780;28;21606;-56
2023/05/05 03:01:15;;;;;;;6.73;6.10;;;11.30;1.00;;;;;;5068773;28;20518;-57
2023/05/05 03:04:06;;;;;;;9.33;6.20;;;11.30;1.00;;;;;;5074193;28;20573;-58
2023/05/05 03:06:39;;;;;;;8.93;6.90;;;11.30;1.00;;;;;;5057514;28;20448;-57
2023/05/05 03:09:09;;;;;;;10.17;6.50;;;11.30;1.00;;;;;;5069747;28;20469;-58
2023/05/05 03:11:39;;;;;;;7.37;6.37;;;11.40;1.00;;;;;;5056612;28;20957;-57
2023/05/05 03:14:08;;;;;;;9.33;6.20;;;11.40;1.00;;;;;;5065465;28;20439;-58
2023/05/05 03:16:36;;;;;;;8.13;6.10;;;11.40;1.00;;;;;;5066364;28;20467;-57
2023/05/05 03:19:07;;;;;;;8.30;6.53;;;11.40;1.00;;;;;;5064144;28;20578;-58
2023/05/05 03:21:33;;;;;;;8.30;6.40;;;11.40;1.00;;;;;;5067903;28;20830;-59
2023/05/05 03:23:59;;;;;;;8.60;6.93;;;11.40;1.00;;;;;;5072171;28;21004;-57
2023/05/05 03:26:24;;;;;;;8.70;6.30;;;11.30;1.00;;;;;;5072046;28;20514;-57
2023/05/05 03:28:50;;;;;;;9.20;6.70;;;11.20;1.00;;;;;;5073786;28;20196;-57
2023/05/05 03:31:17;;;;;;;8.50;6.27;;;11.30;1.00;;;;;;5068382;28;20207;-58
2023/05/05 03:33:42;;;;;;;8.70;6.47;;;11.20;1.00;;;;;;5089183;28;20191;-57
2023/05/05 03:36:09;;;;;;;10.10;6.83;;;11.20;1.00;;;;;;5064409;28;20502;-58
2023/05/05 03:38:35;;;;;;;6.67;6.00;;;11.30;1.00;;;;;;5065196;28;20184;-57
2023/05/05 03:41:02;;;;;;;10.07;6.90;;;11.20;1.00;;;;;;5063542;28;20623;-58
2023/05/05 03:43:28;;;;;;;6.47;5.80;;;11.20;1.00;;;;;;5065921;28;20192;-57
2023/05/05 03:45:53;;;;;;;6.03;5.40;;;11.20;1.00;;;;;;5064574;28;20441;-57
2023/05/05 03:48:19;;;;;;;9.93;6.57;;;11.10;1.00;;;;;;5064469;28;20927;-57
2023/05/05 03:50:45;;;;;;;9.57;6.97;;;11.10;1.00;;;;;;5063852;28;20275;-57
2023/05/05 03:53:10;;;;;;;6.50;5.90;;;11.10;1.00;;;;;;5065765;28;20199;-58
2023/05/05 03:55:36;;;;;;;7.87;6.23;;;11.10;1.00;;;;;;5075798;28;20690;-58
2023/05/05 03:58:02;;;;;;;6.97;5.97;;;11.10;1.00;;;;;;5066712;28;20268;-58
2023/05/05 04:00:27;;;;;;;7.03;6.30;;;11.10;1.00;;;;;;5065958;28;20192;-57
2023/05/05 04:02:53;;;;;;;7.73;6.73;;;11.10;1.00;;;;;;5067559;28;20207;-59
2023/05/05 04:05:19;;;;;;;8.47;6.30;;;11.10;1.00;;;;;;5066937;28;20194;-58
2023/05/05 04:07:45;;;;;;;7.57;5.90;;;11.10;1.00;;;;;;5064534;28;20534;-59
2023/05/05 04:10:10;;;;;;;8.50;6.30;;;11.20;1.00;;;;;;5064608;28;20711;-58
2023/05/05 04:12:36;;;;;;;8.97;6.00;;;11.20;1.00;;;;;;5061894;28;20191;-56
2023/05/05 04:15:02;;;;;;;8.27;6.50;;;11.20;1.00;;;;;;5064556;28;20194;-58
2023/05/05 04:17:27;;;;;;;10.60;6.60;;;11.30;1.00;;;;;;5065455;28;20192;-58
2023/05/05 04:19:53;;;;;;;11.73;6.83;;;11.30;1.00;;;;;;5066065;28;20218;-57
2023/05/05 04:22:18;;;;;;;9.80;6.80;;;11.30;1.00;;;;;;5061828;28;20228;-56
2023/05/05 04:24:44;;;;;;;10.73;6.20;;;11.40;1.00;;;;;;5065781;28;20192;-58
2023/05/05 04:27:10;;;;;;;7.17;6.57;;;11.40;1.00;;;;;;5069058;28;20905;-58
2023/05/05 04:29:35;;;;;;;8.30;6.90;;;11.40;1.00;;;;;;5067147;28;20184;-59
2023/05/05 04:32:01;;;;;;;7.47;6.50;;;11.40;1.00;;;;;;5062977;28;20266;-58
2023/05/05 04:34:26;;;;;;;7.90;6.30;;;11.40;1.00;;;;;;5065244;28;20203;-56
2023/05/05 04:36:52;;;;;;;8.00;6.30;;;11.40;1.00;;;;;;5064866;28;20670;-58
2023/05/05 04:39:17;;;;;;;12.33;6.03;;;11.40;1.00;;;;;;5064909;28;20192;-58
2023/05/05 04:41:43;;;;;;;8.10;6.67;;;11.50;1.00;;;;;;5062278;28;21196;-57
2023/05/05 04:44:09;;;;;;;10.47;7.97;;;11.40;1.00;;;;;;5063268;28;20188;-58
2023/05/05 04:46:34;;;;;;;11.40;7.53;;;11.50;1.00;;;;;;5062798;28;20204;-58
2023/05/05 04:49:02;;;;;;;7.77;6.50;;;11.50;1.00;;;;;;5062675;28;22016;-58
2023/05/05 04:51:27;;;;;;;8.27;6.53;;;11.70;1.00;;;;;;5063967;28;20196;-59
2023/05/05 04:53:53;;;;;;;7.23;5.97;;;11.80;1.00;;;;;;5063741;28;20442;-57
2023/05/05 04:56:18;;;;;;;13.67;7.50;;;11.80;1.00;;;;;;5066197;28;20228;-58
2023/05/05 04:58:44;;;;;;;11.50;6.67;;;11.90;1.00;;;;;;5066391;28;20188;-58
2023/05/05 05:01:10;;;;;;;6.90;6.20;;;11.90;1.00;;;;;;5067600;28;21856;-58
2023/05/05 05:03:35;;;;;;;7.63;6.80;;;12.00;1.00;;;;;;5069502;28;20192;-57
2023/05/05 05:06:01;;;;;;;9.93;7.63;;;12.10;1.00;;;;;;5062570;28;20605;-57
2023/05/05 05:08:27;;;;;;;8.27;6.37;;;12.10;1.00;;;;;;5069640;28;20184;-59
2023/05/05 05:10:52;;;;;;;11.23;7.07;;;12.20;1.00;;;;;;5066124;28;20420;-58
2023/05/05 05:13:18;;;;;;;8.57;6.80;;;12.20;1.00;;;;;;5067597;28;20279;-58
2023/05/05 05:15:44;;;;;;;10.47;8.17;;;12.20;1.00;;;;;;5066632;28;20180;-58
2023/05/05 05:18:10;;;;;;;7.37;6.57;;;12.20;1.00;;;;;;5069968;28;20601;-58
2023/05/05 05:20:36;;;;;;;9.80;6.67;;;12.20;1.00;;;;;;5062589;28;20458;-58
2023/05/05 05:23:01;;;;;;;12.27;7.23;;;12.10;1.00;;;;;;5063031;28;20204;-57
2023/05/05 05:25:27;;;;;;;7.63;6.90;;;12.20;1.00;;;;;;5068581;28;20203;-57
2023/05/05 05:27:53;;;;;;;8.63;7.47;;;12.10;1.00;;;;;;5066510;28;20300;-57
2023/05/05 05:30:19;;;;;;;8.07;6.67;;;12.20;1.00;;;;;;5068575;28;20550;-57
2023/05/05 05:32:45;;;;;;;7.83;6.50;;;12.30;1.00;;;;;;5067412;28;20191;-58
2023/05/05 05:35:10;;;;;;;8.93;6.67;;;12.40;1.00;;;;;;5065936;28;20949;-57
2023/05/05 05:37:36;;;;;;;11.33;7.03;;;12.40;1.00;;;;;;5066757;28;20184;-58
2023/05/05 05:40:04;;;;;;;7.90;7.10;;;12.50;1.00;;;;;;5069255;28;20282;-58
2023/05/05 05:42:29;;;;;;;8.00;6.93;;;12.80;1.00;;;;;;5072059;28;20477;-58
2023/05/05 05:44:57;;;;;;;15.63;8.20;;;13.30;1.00;;;;;;5067322;28;20437;-58
2023/05/05 05:47:23;;;;;;;12.37;6.90;;;13.60;99.90;;;;;;5058740;28;20850;-58
2023/05/05 05:49:48;;;;;;;8.57;6.90;;;13.80;99.90;;;;;;5077437;28;20450;-57
2023/05/05 05:52:14;;;;;;;12.57;6.90;;;13.80;99.90;;;;;;5067753;28;20454;-58
2023/05/05 05:54:40;;;;;;;9.10;7.03;;;13.80;99.90;;;;;;5068667;28;20184;-57
2023/05/05 05:57:05;;;;;;;8.20;7.40;;;13.80;99.90;;;;;;5068149;28;20697;-57
2023/05/05 05:59:31;;;;;;;11.43;6.50;;;13.90;99.90;;;;;;5067386;28;20278;-58
2023/05/05 06:01:57;;;;;;;9.63;7.63;;;13.90;99.90;;;;;;5067798;28;20199;-58
2023/05/05 06:04:23;;;;;;;7.93;7.13;;;13.80;99.90;;;;;;5062269;28;20442;-59
2023/05/05 06:06:48;;;;;;;13.50;6.97;;;13.70;99.90;;;;;;5070352;28;20446;-59
2023/05/05 06:09:14;;;;;;;9.67;6.93;;;13.80;99.90;;;;;;5067798;28;20219;-58
2023/05/05 06:11:40;;;;;;;10.47;7.20;;;14.00;99.90;;;;;;5062953;28;20237;-58
2023/05/05 06:14:05;;;;;;;12.20;6.80;;;13.90;99.90;;;;;;5067110;28;20183;-58
2023/05/05 06:16:31;;;;;;;12.17;6.60;;;14.20;99.90;;;;;;5067507;28;20271;-58
2023/05/05 06:18:56;;;;;;;13.83;6.90;;;14.50;99.90;;;;;;5063716;28;20199;-59
2023/05/05 06:21:22;;;;;;;12.20;6.93;;;14.80;99.90;;;;;;5065268;28;20286;-58
2023/05/05 06:23:48;;;;;;;7.73;6.87;;;15.10;99.90;;;;;;5068734;28;20209;-59
2023/05/05 06:26:13;;;;;;;8.70;6.90;;;15.40;99.90;;;;;;5067049;28;20183;-58
2023/05/05 06:28:40;;;;;;;9.60;7.07;;;15.60;99.90;;;;;;5066185;28;20176;-59
2023/05/05 06:31:06;;;;;;;12.57;6.63;;;15.80;99.90;;;;;;5065116;28;20219;-62
2023/05/05 06:33:31;;;;;;;8.10;6.47;;;15.90;99.90;;;;;;5066697;28;20441;-58
2023/05/05 06:35:57;;;;;;;10.20;6.90;;;15.70;99.90;;;;;;5068581;28;20262;-58
2023/05/05 06:38:23;;;;;;;8.43;6.80;;;15.60;99.90;;;;;;5064559;28;20184;-58
2023/05/05 06:40:48;;;;;;;6.80;6.03;;;15.60;99.90;;;;;;5059509;28;20187;-57
2023/05/05 06:43:15;;;;;;;11.10;6.33;;;15.60;99.90;;;;;;5065600;28;20562;-57
2023/05/05 06:45:41;;;;;;;7.97;7.10;;;15.60;99.90;;;;;;5068074;28;20410;-58
2023/05/05 06:48:06;;;;;;;9.23;6.10;;;15.80;99.90;;;;;;5063626;28;20800;-59
2023/05/05 06:50:32;;;;;;;8.80;6.27;;;16.00;99.90;;;;;;5067943;28;20446;-58
2023/05/05 06:52:57;;;;;;;8.67;6.30;;;16.30;99.90;;;;;;5074575;28;20191;-59
2023/05/05 06:55:23;;;;;;;8.50;5.70;;;16.40;99.90;;;;;;5064943;28;20246;-59
2023/05/05 06:57:49;;;;;;;7.97;5.60;;;16.70;99.90;;;;;;5067283;28;20191;-58
2023/05/05 07:00:16;;;;;;;10.57;6.90;;;16.90;99.90;;;;;;5068720;28;20490;-58
2023/05/05 07:02:42;;;;;;;7.97;5.80;;;17.10;99.90;;;;;;5062572;28;20299;-58
2023/05/05 07:05:11;;;;;;;8.83;5.33;;;17.30;99.90;;;;;;5064252;28;21021;-58
2023/05/05 07:07:37;;;;;;;7.10;5.77;;;17.50;99.90;;;;;;5065068;28;20846;-58
2023/05/05 07:10:03;;;;;;;5.10;4.60;;;17.60;99.90;;;;;;5068952;28;20491;-57
2023/05/05 07:12:32;;;;;;;8.00;5.20;;;17.70;99.90;;;;;;5077436;28;20526;-59
2023/05/05 07:14:57;;;;;;;6.30;4.43;;;17.90;99.90;;;;;;5066338;28;20932;-57
2023/05/05 07:17:23;;;;;;;6.37;5.60;;;18.10;99.90;;;;;;5063087;28;20453;-59
2023/05/05 07:19:50;;;;;;;4.83;4.33;;;18.30;99.90;;;;;;5066142;28;20267;-60
2023/05/05 07:22:15;;;;;;;5.60;4.50;;;18.50;99.90;;;;;;5057198;28;20247;-57
2023/05/05 07:24:41;;;;;;;5.00;4.50;;;18.60;99.90;;;;;;5063348;28;20580;-58
2023/05/05 07:27:06;;;;;;;5.93;4.83;;;18.80;99.90;;;;;;5067318;28;20250;-57
2023/05/05 07:29:32;;;;;;;6.70;4.60;;;18.90;99.90;;;;;;5065898;28;20199;-58
2023/05/05 07:31:58;;;;;;;6.13;4.40;;;19.00;99.90;;;;;;5068001;28;20214;-58
2023/05/05 07:34:23;;;;;;;4.40;3.97;;;19.10;99.90;;;;;;5068127;28;20605;-60
2023/05/05 07:36:49;;;;;;;8.90;3.93;;;19.20;99.90;;;;;;5073606;28;20191;-58
2023/05/05 07:39:15;;;;;;;8.77;4.37;;;19.30;99.90;;;;;;5060479;28;20211;-58
2023/05/05 07:41:41;;;;;;;5.60;4.63;;;19.60;99.90;;;;;;5063717;28;20211;-57
2023/05/05 07:44:07;;;;;;;11.97;4.23;;;19.70;99.90;;;;;;5067160;28;20604;-58
2023/05/05 07:46:33;;;;;;;5.20;4.07;;;19.80;99.90;;;;;;5066354;28;20442;-58
2023/05/05 07:48:58;;;;;;;4.50;4.10;;;19.90;99.90;;;;;;5063230;28;20186;-58
2023/05/05 07:51:25;;;;;;;6.53;4.07;;;20.00;99.90;;;;;;5063085;28;20192;-57
2023/05/05 07:53:50;;;;;;;6.43;4.10;;;20.10;99.90;;;;;;5064733;28;20260;-59
2023/05/05 07:56:16;;;;;;;5.27;4.27;;;20.20;99.90;;;;;;5061602;28;20475;-57
2023/05/05 07:58:42;;;;;;;10.60;4.90;;;20.30;99.90;;;;;;5069035;28;20245;-58
2023/05/05 08:01:09;;;;;;;4.87;4.37;;;20.30;99.90;;;;;;5063961;28;20669;-58
2023/05/05 08:03:35;;;;;;;5.20;3.93;;;20.50;99.90;;;;;;5066580;28;20188;-58
2023/05/05 08:06:09;;;;;;;6.30;4.13;;;20.70;99.90;;;;;;5065788;28;20900;-57
2023/05/05 08:08:35;;;;;;;12.00;4.90;;;21.00;99.90;;;;;;5064508;28;20465;-56
2023/05/05 08:11:01;;;;;;;5.03;4.10;;;21.30;99.90;;;;;;5064495;28;20451;-58
2023/05/05 08:13:29;;;;;;;4.20;3.80;;;21.50;99.90;;;;;;5065089;28;20413;-56
2023/05/05 08:15:55;;;;;;;6.47;3.83;;;21.70;99.90;;;;;;5069252;28;20944;-58
2023/05/05 08:18:21;;;;;;;7.27;4.00;;;21.90;99.90;;;;;;5075998;28;20438;-58
2023/05/05 08:20:46;;;;;;;5.43;4.20;;;22.20;99.90;;;;;;5070084;28;20812;-59
2023/05/05 08:23:12;;;;;;;6.33;3.90;;;22.30;99.90;;;;;;5088895;28;20284;-58
2023/05/05 08:25:38;;;;;;;5.83;3.83;;;22.20;99.90;;;;;;5076307;28;20192;-59
2023/05/05 08:28:03;;;;;;;8.80;4.10;;;22.30;99.90;;;;;;5068691;28;20264;-58
2023/05/05 08:30:29;;;;;;;4.93;3.87;;;22.30;99.90;;;;;;5069688;28;20194;-60
2023/05/05 08:32:55;;;;;;;4.70;3.73;;;22.40;99.90;;;;;;5072848;28;20533;-60
2023/05/05 08:35:21;;;;;;;6.20;4.43;;;22.60;99.90;;;;;;5070297;28;20454;-58
2023/05/05 08:37:47;;;;;;;7.83;4.83;;;22.80;99.90;;;;;;5077412;28;20661;-57
2023/05/05 08:40:13;;;;;;;5.80;3.63;;;23.00;99.90;;;;;;5062354;28;20479;-58
2023/05/05 08:42:40;;;;;;;5.23;4.23;;;23.00;99.90;;;;;;5064036;28;20216;-58
2023/05/05 08:45:09;;;;;;;4.77;3.97;;;23.20;99.90;;;;;;5071561;28;20439;-59
2023/05/05 08:47:36;;;;;;;4.90;4.50;;;23.40;99.90;;;;;;5074748;28;20932;-65
2023/05/05 08:50:02;;;;;;;5.30;3.73;;;23.70;99.90;;;;;;5082408;28;20450;-64
2023/05/05 08:52:36;;;;;;;6.47;3.97;;;24.00;99.90;;;;;;5090838;28;20440;-62
2023/05/05 08:55:18;;;;;;;5.63;3.87;;;24.20;99.90;;;;;;5072141;28;20489;-57
2023/05/05 08:57:51;;;;;;;3.90;3.60;;;24.60;99.90;;;;;;5071289;28;20453;-57
2023/05/05 09:00:20;;;;;;;5.33;4.40;;;24.70;99.90;;;;;;5070974;28;20805;-58
2023/05/05 09:02:46;;;;;;;3.90;3.60;;;24.70;99.90;;;;;;5071864;28;20460;-57
2023/05/05 09:05:12;;;;;;;3.83;3.43;;;24.70;99.90;;;;;;5064896;28;20450;-56
2023/05/05 09:07:40;;;;;;;4.00;3.47;;;24.70;99.90;;;;;;5075462;28;20455;-56
2023/05/05 09:10:07;;;;;;;5.47;3.80;;;24.70;99.90;;;;;;5069160;28;20657;-58
2023/05/05 09:12:34;;;;;;;4.50;3.53;;;24.60;99.90;;;;;;5072137;28;20468;-57
2023/05/05 09:15:02;;;;;;;4.60;3.70;;;24.60;99.90;;;;;;5069818;28;20869;-57
2023/05/05 09:17:28;;;;;;;5.23;3.90;;;24.40;99.90;;;;;;5078070;28;20477;-57
2023/05/05 09:20:11;;;;;;;5.57;3.60;;;24.30;99.90;;;;;;5080929;28;20430;-58
2023/05/05 09:22:47;;;;;;;3.50;3.20;;;24.30;99.90;;;;;;5064210;28;20463;-57
2023/05/05 09:25:15;;;;;;;5.07;3.87;;;24.30;99.90;;;;;;5070100;28;20784;-57
2023/05/05 09:27:44;;;;;;;3.80;3.50;;;24.50;99.90;;;;;;5071431;28;20405;-58
2023/05/05 09:30:16;;;;;;;3.70;3.30;;;24.80;99.90;;;;;;5070421;28;20543;-56
2023/05/05 09:32:46;;;;;;;4.70;3.60;;;25.10;99.90;;;;;;5065631;28;20541;-57
2023/05/05 09:35:12;;;;;;;4.60;3.13;;;25.10;99.90;;;;;;5069100;28;20461;-58
2023/05/05 09:37:37;;;;;;;6.07;3.40;;;24.90;99.90;;;;;;5068341;28;20532;-56
2023/05/05 09:40:04;;;;;;;3.63;2.90;;;24.90;99.90;;;;;;5070897;28;20194;-56
2023/05/05 09:42:30;;;;;;;9.30;3.53;;;24.60;99.90;;;;;;5068220;28;20221;-57
2023/05/05 09:44:56;;;;;;;4.80;3.70;;;24.40;99.90;;;;;;5069712;28;20954;-57
2023/05/05 09:47:35;;;;;;;5.97;3.47;;;24.60;99.90;;;;;;5066936;28;20502;-57
2023/05/05 09:50:02;;;;;;;3.87;3.13;;;24.50;99.90;;;;;;5071432;28;20244;-57
2023/05/05 09:52:29;;;;;;;3.20;2.90;;;24.50;99.90;;;;;;5067326;28;21042;-56
2023/05/05 09:54:56;;;;;;;6.10;3.10;;;24.50;99.90;;;;;;5067117;28;20456;-57
2023/05/05 09:57:30;;;;;;;5.03;3.17;;;24.70;99.90;;;;;;5064476;28;20513;-58
2023/05/05 10:00:00;;;;;;;6.07;3.70;;;24.40;99.90;;;;;;5068707;28;20744;-57
2023/05/05 10:02:44;;;;;;;3.93;3.10;;;24.40;99.90;;;;;;5071678;28;20456;-56
2023/05/05 10:05:14;;;;;;;4.63;2.87;;;24.50;99.90;;;;;;5067650;28;20498;-57
2023/05/05 10:07:42;;;;;;;4.00;3.50;;;24.30;99.90;;;;;;5069478;28;20421;-56
2023/05/05 10:13:36;;;;;;;5.43;3.20;;;24.20;99.90;;;;;;4966587;28;20421;-57
2023/05/05 10:16:03;;;;;;;5.37;3.63;;;24.20;99.90;;;;;;5067460;28;20448;-58
2023/05/05 10:18:31;;;;;;;6.43;3.53;;;24.30;99.90;;;;;;5068239;28;20443;-57
2023/05/05 10:20:59;;;;;;;4.40;3.87;;;24.20;99.90;;;;;;5069461;28;20488;-56
2023/05/05 10:23:48;;;;;;;5.67;3.57;;;24.20;99.90;;;;;;5067791;28;20428;-57
2023/05/05 10:26:15;;;;;;;3.90;3.37;;;24.40;99.90;;;;;;5069478;28;20398;-57
2023/05/05 10:28:49;;;;;;;4.30;3.80;;;24.50;99.90;;;;;;5068014;28;20476;-57
2023/05/05 10:31:44;;;;;;;6.10;3.30;;;24.60;99.90;;;;;;5070270;28;20503;-57
2023/05/05 10:34:17;;;;;;;3.43;3.13;;;24.50;99.90;;;;;;5068460;28;20494;-58
2023/05/05 10:36:43;;;;;;;8.27;3.90;;;24.50;99.90;;;;;;5067574;28;20855;-56
2023/05/05 10:39:10;;;;;;;4.63;4.20;;;24.60;99.90;;;;;;5068435;28;20433;-56
2023/05/05 10:41:37;;;;;;;3.83;3.40;;;24.80;99.90;;;;;;5065690;28;20438;-57
2023/05/05 10:44:03;;;;;;;6.53;3.60;;;25.00;99.90;;;;;;5070095;28;20441;-58
2023/05/05 10:46:29;;;;;;;3.20;2.80;;;25.20;99.90;;;;;;5064778;28;20790;-56
2023/05/05 10:49:19;;;;;;;4.10;2.90;;;25.30;99.90;;;;;;5067053;28;20493;-57
2023/05/05 10:52:10;;;;;;;5.37;3.23;;;25.30;99.90;;;;;;5057195;28;20793;-56
2023/05/05 10:54:45;;;;;;;5.33;3.27;;;25.20;99.90;;;;;;5065107;28;20489;-57
2023/05/05 10:57:15;;;;;;;4.57;3.30;;;25.20;99.90;;;;;;5069708;28;20475;-56
2023/05/05 10:59:41;;;;;;;3.30;3.00;;;25.30;99.90;;;;;;5065457;28;20449;-57
2023/05/05 11:02:24;;;;;;;8.40;3.23;;;25.20;99.90;;;;;;5064928;28;20527;-56
2023/05/05 11:05:11;;;;;;;5.33;2.90;;;25.30;99.90;;;;;;5068600;28;20441;-56
2023/05/05 11:07:36;;;;;;;4.73;3.53;;;25.40;99.90;;;;;;5064432;28;20447;-57
2023/05/05 11:10:07;;;;;;;10.37;4.07;;;25.30;99.90;;;;;;5062278;28;20437;-57
2023/05/05 11:12:53;;;;;;;6.83;3.40;;;25.60;99.90;;;;;;5067062;28;20465;-58
2023/05/05 11:15:30;;;;;;;4.10;3.70;;;25.70;99.90;;;;;;5065322;28;20494;-57
2023/05/05 11:18:01;;;;;;;4.90;3.23;;;25.90;99.90;;;;;;5069466;28;20430;-57
2023/05/05 11:20:42;;;;;;;5.80;3.60;;;25.90;99.90;;;;;;5066744;28;20537;-57
2023/05/05 11:23:07;;;;;;;4.23;3.70;;;25.90;99.90;;;;;;5069592;28;20966;-58
2023/05/05 11:25:36;;;;;;;3.80;3.30;;;26.10;99.90;;;;;;5069302;28;20535;-57
2023/05/05 11:28:10;;;;;;;2.97;2.67;;;26.20;99.90;;;;;;5069453;28;20284;-57
2023/05/05 11:30:55;;;;;;;4.93;3.17;;;26.10;99.90;;;;;;5065270;28;20449;-58
2023/05/05 11:33:39;;;;;;;3.70;3.17;;;25.90;99.90;;;;;;5069050;28;20842;-57
2023/05/05 11:36:06;;;;;;;6.80;4.20;;;26.20;99.90;;;;;;5068673;28;20522;-58
2023/05/05 11:38:55;;;;;;;6.47;3.27;;;26.60;99.90;;;;;;5070023;28;20447;-57
2023/05/05 11:42:06;;;;;;;4.13;3.30;;;26.30;99.90;;;;;;5036152;28;20459;-57
2023/05/05 11:44:33;;;;;;;6.90;3.60;;;26.20;99.90;;;;;;5069263;28;20448;-57
2023/05/05 11:46:59;;;;;;;4.07;2.63;;;26.40;99.90;;;;;;5059751;28;20432;-58
2023/05/05 11:49:35;;;;;;;2.93;2.63;;;26.50;99.90;;;;;;5064474;28;20415;-58
2023/05/05 11:52:07;;;;;;;4.40;3.40;;;26.40;99.90;;;;;;5066598;28;20452;-57
2023/05/05 11:54:36;;;;;;;3.83;3.30;;;26.10;99.90;;;;;;5063031;28;20477;-56
2023/05/05 11:57:07;;;;;;;7.33;3.93;;;26.10;99.90;;;;;;5062538;28;20499;-56
2023/05/05 11:59:35;;;;;;;4.10;3.43;;;26.00;99.90;;;;;;5065682;28;20422;-58
2023/05/05 12:02:02;;;;;;;4.63;2.80;;;26.10;99.90;;;;;;5068727;28;20468;-62
2023/05/05 12:04:30;;;;;;;5.20;3.00;;;26.10;99.90;;;;;;5085080;28;20481;-57
2023/05/05 12:06:57;;;;;;;5.97;3.00;;;26.00;99.90;;;;;;5080919;28;20764;-58
2023/05/05 12:09:23;;;;;;;4.00;3.17;;;26.20;99.90;;;;;;5091665;28;20455;-57
2023/05/05 12:11:56;;;;;;;3.57;2.67;;;26.40;99.90;;;;;;5071239;28;20965;-56
2023/05/05 12:14:23;;;;;;;4.13;3.10;;;26.60;99.90;;;;;;5074041;28;20452;-56
2023/05/05 12:17:03;;;;;;;4.77;2.80;;;26.70;99.90;;;;;;5075955;28;20487;-57
2023/05/05 12:19:31;;;;;;;4.20;3.40;;;26.50;99.90;;;;;;5075331;28;20438;-57
2023/05/05 12:22:01;;;;;;;4.90;2.93;;;26.40;99.90;;;;;;5075394;28;20457;-57
2023/05/05 12:24:27;;;;;;;2.80;2.60;;;26.30;99.90;;;;;;5075473;28;20487;-58
2023/05/05 12:26:52;;;;;;;5.40;2.90;;;26.50;99.90;;;;;;5071866;28;20457;-57
2023/05/05 12:29:25;;;;;;;3.57;3.00;;;26.80;99.90;;;;;;5071566;28;20436;-55
2023/05/05 12:31:51;;;;;;;7.23;2.73;;;27.10;99.90;;;;;;5071064;28;20201;-56
2023/05/05 12:34:17;;;;;;;3.17;2.97;;;27.30;99.90;;;;;;5075007;28;20774;-57
2023/05/05 12:36:43;;;;;;;4.20;3.00;;;27.40;99.90;;;;;;5072785;28;20573;-58
2023/05/05 12:39:09;;;;;;;4.50;3.03;;;27.40;99.90;;;;;;5073870;28;20452;-57
2023/05/05 12:41:34;;;;;;;4.03;2.80;;;27.30;99.90;;;;;;5072649;28;20508;-57
2023/05/05 12:44:04;;;;;;;4.90;2.97;;;27.00;99.90;;;;;;5073644;28;20631;-56
2023/05/05 12:46:30;;;;;;;5.97;3.27;;;26.90;99.90;;;;;;5072029;28;20237;-57
2023/05/05 12:49:04;;;;;;;3.87;3.30;;;27.00;99.90;;;;;;5072687;28;20490;-57
2023/05/05 12:51:37;;;;;;;4.70;2.80;;;27.30;99.90;;;;;;5075756;28;20459;-57
2023/05/05 12:54:08;;;;;;;3.50;3.20;;;27.20;99.90;;;;;;5072415;28;20443;-57
2023/05/05 12:56:45;;;;;;;3.20;2.90;;;27.20;99.90;;;;;;5070693;28;20797;-58
2023/05/05 12:59:20;;;;;;;3.20;2.90;;;27.30;99.90;;;;;;5067828;28;20427;-57
2023/05/05 13:01:55;;;;;;;3.93;2.73;;;27.30;99.90;;;;;;5071705;28;20467;-60